Time;durP1;ratioP1;P1;durP2;ratioP2;P2;SDS_P1;SDS_P2;PMS_P1;PMS_P2;Temp;Humidity;BMP_temperature;BMP_pressure;BME280_temperature;BME280_humidity;BME280_pressure;Samples;Min_cycle;Max_cycle;Signal;HPM_P1;HPM_P2
2021/06/04 00:01:20;;;;;;;6.93;3.95;;;;;;;;;;4973251;28;20022;-74
2021/06/04 00:03:47;;;;;;;6.35;3.47;;;;;;;;;;4978756;28;20473;-75
2021/06/04 00:06:14;;;;;;;8.35;3.80;;;;;;;;;;4974401;28;20243;-75
2021/06/04 00:08:40;;;;;;;5.22;3.60;;;;;;;;;;4974564;28;20035;-75
2021/06/04 00:11:11;;;;;;;5.18;3.58;;;;;;;;;;4957102;28;20031;-75
2021/06/04 00:13:37;;;;;;;4.95;3.83;;;;;;;;;;4974521;28;20069;-75
2021/06/04 00:16:12;;;;;;;5.13;4.05;;;;;;;;;;4973723;28;20059;-75
2021/06/04 00:18:39;;;;;;;6.80;3.60;;;;;;;;;;4973851;28;20031;-75
2021/06/04 00:21:13;;;;;;;7.18;3.92;;;;;;;;;;4974003;28;20483;-75
2021/06/04 00:23:42;;;;;;;8.20;4.20;;;;;;;;;;4971461;28;20042;-75
2021/06/04 00:26:09;;;;;;;5.60;3.90;;;;;;;;;;4974270;28;20031;-75
2021/06/04 00:28:35;;;;;;;6.43;3.65;;;;;;;;;;4973946;28;20483;-75
2021/06/04 00:31:01;;;;;;;9.43;3.67;;;;;;;;;;4973669;28;20027;-75
2021/06/04 00:33:28;;;;;;;5.22;3.55;;;;;;;;;;4981324;28;20373;-75
2021/06/04 00:35:55;;;;;;;7.30;3.70;;;;;;;;;;4957065;28;20133;-75
2021/06/04 00:38:23;;;;;;;8.85;3.50;;;;;;;;;;4975433;28;20037;-75
2021/06/04 00:40:51;;;;;;;5.57;3.70;;;;;;;;;;4973784;28;20026;-75
2021/06/04 00:43:18;;;;;;;6.65;3.90;;;;;;;;;;4975810;28;20077;-75
2021/06/04 00:45:48;;;;;;;5.63;3.70;;;;;;;;;;4973219;28;20023;-74
2021/06/04 00:48:15;;;;;;;5.47;3.60;;;;;;;;;;4974272;28;20030;-75
2021/06/04 00:50:44;;;;;;;6.68;3.70;;;;;;;;;;4982308;28;20046;-75
2021/06/04 00:53:10;;;;;;;5.32;3.70;;;;;;;;;;4994031;28;20053;-74
2021/06/04 00:55:39;;;;;;;6.13;3.75;;;;;;;;;;4993518;28;20104;-75
2021/06/04 00:58:06;;;;;;;7.63;3.42;;;;;;;;;;4993464;28;20053;-75
2021/06/04 01:00:35;;;;;;;8.13;3.50;;;;;;;;;;4994238;28;20475;-75
2021/06/04 01:03:01;;;;;;;6.68;3.50;;;;;;;;;;4992724;28;20022;-75
2021/06/04 01:05:29;;;;;;;8.18;4.18;;;;;;;;;;4993412;28;20026;-74
2021/06/04 01:08:12;;;;;;;5.38;3.80;;;;;;;;;;4990435;28;20026;-75
2021/06/04 01:10:44;;;;;;;6.65;4.10;;;;;;;;;;4993391;28;20034;-75
2021/06/04 01:13:27;;;;;;;6.53;3.50;;;;;;;;;;4993983;28;20484;-75
2021/06/04 01:15:53;;;;;;;6.78;4.05;;;;;;;;;;4996573;28;20093;-75
2021/06/04 01:18:19;;;;;;;6.18;3.45;;;;;;;;;;4997800;28;20030;-75
2021/06/04 01:20:48;;;;;;;7.03;3.50;;;;;;;;;;4996966;28;20030;-75
2021/06/04 01:23:25;;;;;;;4.35;3.50;;;;;;;;;;5004366;28;20125;-75
2021/06/04 01:25:58;;;;;;;4.32;3.53;;;;;;;;;;4985943;28;20105;-74
2021/06/04 01:28:39;;;;;;;4.85;3.75;;;;;;;;;;4997184;28;20048;-75
2021/06/04 01:31:12;;;;;;;6.07;3.78;;;;;;;;;;4978395;28;20404;-75
2021/06/04 01:33:58;;;;;;;7.07;3.97;;;;;;;;;;4998417;28;20015;-75
2021/06/04 01:36:26;;;;;;;6.75;3.60;;;;;;;;;;4990741;28;20125;-75
2021/06/04 01:38:53;;;;;;;6.53;3.70;;;;;;;;;;4997525;28;20066;-75
2021/06/04 01:41:23;;;;;;;5.47;3.63;;;;;;;;;;4997632;28;20023;-76
2021/06/04 01:43:55;;;;;;;6.00;3.58;;;;;;;;;;4997490;28;20050;-75
2021/06/04 01:46:24;;;;;;;7.53;3.90;;;;;;;;;;5002711;28;20030;-75
2021/06/04 01:48:51;;;;;;;10.10;4.05;;;;;;;;;;4996780;28;20098;-75
2021/06/04 01:51:20;;;;;;;7.63;3.85;;;;;;;;;;4995771;28;20069;-75
2021/06/04 01:53:52;;;;;;;6.80;3.60;;;;;;;;;;4997550;28;20029;-75
2021/06/04 01:56:23;;;;;;;8.95;3.70;;;;;;;;;;4997001;28;20041;-75
2021/06/04 01:59:12;;;;;;;5.57;3.97;;;;;;;;;;4998136;28;20050;-75
2021/06/04 02:01:40;;;;;;;5.22;3.70;;;;;;;;;;4935673;29;20039;-74
2021/06/04 02:04:09;;;;;;;5.03;3.60;;;;;;;;;;4937298;29;20063;-75
2021/06/04 02:06:35;;;;;;;5.25;3.80;;;;;;;;;;4937014;29;20544;-75
2021/06/04 02:09:04;;;;;;;7.57;3.70;;;;;;;;;;4936748;29;20078;-75
2021/06/04 02:11:31;;;;;;;6.97;3.78;;;;;;;;;;4939045;29;20028;-75
2021/06/04 02:14:00;;;;;;;4.22;3.40;;;;;;;;;;4937762;29;20031;-75
2021/06/04 02:16:45;;;;;;;10.00;3.78;;;;;;;;;;4936635;29;20035;-74
2021/06/04 02:19:16;;;;;;;7.18;3.72;;;;;;;;;;4937629;29;20497;-75
2021/06/04 02:21:47;;;;;;;8.02;3.60;;;;;;;;;;4937161;29;20036;-75
2021/06/04 02:24:40;;;;;;;5.10;3.53;;;;;;;;;;4936561;29;20073;-74
2021/06/04 02:27:12;;;;;;;5.57;3.75;;;;;;;;;;4936801;29;20040;-75
2021/06/04 02:29:42;;;;;;;6.22;3.75;;;;;;;;;;4936482;29;20039;-75
2021/06/04 02:32:08;;;;;;;5.55;4.13;;;;;;;;;;4937761;29;20130;-75
2021/06/04 02:34:56;;;;;;;12.02;4.13;;;;;;;;;;4945287;29;20111;-75
2021/06/04 02:37:29;;;;;;;5.05;3.65;;;;;;;;;;4938495;29;20058;-75
2021/06/04 02:40:06;;;;;;;5.55;3.72;;;;;;;;;;4991256;28;20026;-75
2021/06/04 02:42:38;;;;;;;5.60;3.75;;;;;;;;;;4995788;28;20101;-75
2021/06/04 02:45:12;;;;;;;6.20;4.10;;;;;;;;;;4996990;28;20121;-75
2021/06/04 02:47:43;;;;;;;7.18;3.80;;;;;;;;;;4997379;28;20440;-75
2021/06/04 02:50:15;;;;;;;6.43;3.78;;;;;;;;;;4996993;28;20057;-75
2021/06/04 02:52:42;;;;;;;6.18;3.58;;;;;;;;;;5003367;28;20030;-75
2021/06/04 02:55:14;;;;;;;10.10;4.10;;;;;;;;;;4997533;28;20034;-75
2021/06/04 02:57:41;;;;;;;7.50;4.15;;;;;;;;;;4996743;28;20527;-75
2021/06/04 03:00:38;;;;;;;6.20;4.10;;;;;;;;;;4997438;28;20030;-75
2021/06/04 03:03:05;;;;;;;5.70;3.97;;;;;;;;;;4995903;28;20034;-75
2021/06/04 03:05:34;;;;;;;10.55;4.22;;;384.70;1996.80;;;;;;4996280;28;20049;-75
2021/06/04 03:08:00;;;;;;;9.52;4.28;;;384.50;1996.80;;;;;;4993154;28;20031;-75
2021/06/04 03:10:38;;;;;;;6.28;3.90;;;384.50;2022.40;;;;;;4994666;28;20018;-75
2021/06/04 03:13:07;;;;;;;5.25;4.03;;;384.50;2022.40;;;;;;4989731;28;20048;-75
2021/06/04 03:15:59;;;;;;;10.38;4.22;;;384.50;2022.40;;;;;;4996028;28;20017;-76
2021/06/04 03:18:39;;;;;;;7.82;4.03;;;384.40;2022.40;;;;;;4993097;28;20050;-75
2021/06/04 03:21:11;;;;;;;10.27;4.68;;;384.40;2048.00;;;;;;4996865;28;20037;-75
2021/06/04 03:23:37;;;;;;;10.68;5.03;;;384.30;2048.00;;;;;;4993618;28;20026;-75
2021/06/04 03:26:09;;;;;;;11.85;4.43;;;384.30;2048.00;;;;;;4996019;28;20484;-75
2021/06/04 03:28:37;;;;;;;6.40;3.78;;;384.30;2048.00;;;;;;4995695;28;20037;-74
2021/06/04 03:31:05;;;;;;;8.88;4.03;;;384.20;2048.00;;;;;;4984800;28;20026;-75
2021/06/04 03:33:34;;;;;;;10.50;4.05;;;384.20;2048.00;;;;;;4999168;28;20026;-74
2021/06/04 03:36:03;;;;;;;7.28;4.05;;;384.20;2073.60;;;;;;4990051;28;20030;-75
2021/06/04 03:38:29;;;;;;;7.95;4.05;;;384.10;2073.60;;;;;;4996043;28;20049;-75
2021/06/04 03:40:55;;;;;;;10.48;4.40;;;384.10;2048.00;;;;;;4990982;28;20025;-74
2021/06/04 03:43:25;;;;;;;6.80;4.20;;;384.20;2073.60;;;;;;4994740;28;20033;-75
2021/06/04 03:45:52;;;;;;;7.57;4.28;;;384.20;2099.20;;;;;;4993169;28;20030;-75
2021/06/04 03:48:22;;;;;;;8.93;4.70;;;384.20;2099.20;;;;;;4994211;28;20030;-75
2021/06/04 03:50:52;;;;;;;9.73;5.10;;;384.20;2099.20;;;;;;4994201;28;20048;-75
2021/06/04 03:53:18;;;;;;;10.98;5.10;;;384.20;2099.20;;;;;;4994192;28;20027;-75
2021/06/04 03:55:45;;;;;;;8.90;4.82;;;384.30;2099.20;;;;;;4995092;28;20534;-75
2021/06/04 03:58:15;;;;;;;7.00;4.53;;;384.30;2124.80;;;;;;4995158;28;20475;-75
2021/06/04 04:01:04;;;;;;;6.63;4.53;;;384.30;2124.80;;;;;;4994656;28;20018;-75
2021/06/04 04:03:30;;;;;;;7.93;4.32;;;384.30;2124.80;;;;;;5000145;28;20088;-74
2021/06/04 04:05:56;;;;;;;5.78;3.80;;;384.30;2124.80;;;;;;4993949;28;20395;-75
2021/06/04 04:08:24;;;;;;;7.60;4.32;;;384.40;2150.40;;;;;;4998787;28;20030;-75
2021/06/04 04:10:51;;;;;;;11.88;5.05;;;384.40;2124.80;;;;;;4993586;28;20475;-75
2021/06/04 04:13:19;;;;;;;6.75;4.15;;;384.40;2150.40;;;;;;4998536;28;20450;-75
2021/06/04 04:15:45;;;;;;;11.68;5.38;;;384.30;2150.40;;;;;;4994285;28;20078;-74
2021/06/04 04:18:12;;;;;;;11.73;4.43;;;384.30;2150.40;;;;;;4996898;28;20034;-75
2021/06/04 04:20:45;;;;;;;9.75;4.38;;;384.30;2150.40;;;;;;4995331;28;20066;-75
2021/06/04 04:23:14;;;;;;;7.57;4.45;;;384.30;2150.40;;;;;;4996048;28;20526;-73
2021/06/04 04:25:42;;;;;;;6.53;4.00;;;384.30;2150.40;;;;;;4991460;28;20027;-75
2021/06/04 04:28:12;;;;;;;7.78;4.30;;;384.30;2150.40;;;;;;4990506;28;20109;-75
2021/06/04 04:30:38;;;;;;;10.45;4.68;;;384.40;2150.40;;;;;;4979859;28;20380;-74
2021/06/04 04:33:05;;;;;;;9.02;4.57;;;384.50;2176.00;;;;;;5003731;28;20026;-78
2021/06/04 04:35:35;;;;;;;8.98;4.13;;;384.50;2176.00;;;;;;4996212;28;20663;-76
2021/06/04 04:38:02;;;;;;;9.20;4.00;;;384.60;2176.00;;;;;;4996859;28;20023;-77
2021/06/04 04:40:31;;;;;;;5.80;4.00;;;384.60;2176.00;;;;;;4989804;28;20022;-72
2021/06/04 04:42:57;;;;;;;9.32;4.40;;;384.80;2176.00;;;;;;4979728;28;20081;-74
2021/06/04 04:45:25;;;;;;;10.40;4.40;;;409.60;2201.60;;;;;;4972282;28;20813;-73
2021/06/04 04:47:52;;;;;;;8.00;4.10;;;;;;;;;;4985079;28;20075;-74
2021/06/04 04:50:20;;;;;;;9.75;4.50;;;;;;;;;;4977139;28;20046;-74
2021/06/04 04:52:46;;;;;;;8.57;4.30;;;;;;;;;;4977648;28;20109;-74
2021/06/04 04:55:13;;;;;;;9.18;4.90;;;;;;;;;;4987858;28;20066;-73
2021/06/04 04:57:39;;;;;;;10.93;4.68;;;;;;;;;;4985398;28;20133;-74
2021/06/04 05:00:11;;;;;;;8.32;4.43;;;;;;;;;;4981659;28;20030;-74
2021/06/04 05:02:37;;;;;;;7.88;4.13;;;;;;;;;;4990343;28;20484;-74
2021/06/04 05:05:05;;;;;;;8.57;4.15;;;;;;;;;;4991956;28;20452;-74
2021/06/04 05:07:31;;;;;;;11.98;4.22;;;;;;;;;;4974191;28;20026;-74
2021/06/04 05:09:57;;;;;;;10.63;4.25;;;;;;;;;;4992585;28;20034;-74
2021/06/04 05:12:24;;;;;;;6.55;3.90;;;;;;;;;;4969752;28;20085;-74
2021/06/04 05:14:50;;;;;;;11.93;3.97;;;;;;;;;;4986431;28;20110;-74
2021/06/04 05:17:17;;;;;;;8.30;4.45;;;;;;;;;;4991812;28;20420;-76
2021/06/04 05:19:46;;;;;;;8.30;3.90;;;;;;;;;;4991450;28;20027;-75
2021/06/04 05:22:13;;;;;;;14.52;4.95;;;;;;;;;;4991893;28;20487;-73
2021/06/04 05:24:39;;;;;;;10.27;4.03;;;;;;;;;;4990465;28;20125;-74
2021/06/04 05:27:05;;;;;;;13.25;4.88;;;;;;;;;;4991685;28;20062;-74
2021/06/04 05:29:32;;;;;;;10.85;4.50;;;;;;;;;;4991669;28;20031;-73
2021/06/04 05:31:58;;;;;;;13.18;4.15;;;;;;;;;;4992284;28;20045;-75
2021/06/04 05:34:25;;;;;;;8.07;3.90;;;;;;;;;;4991351;28;20022;-75
2021/06/04 05:36:51;;;;;;;10.57;4.28;;;;;;;;;;4990202;28;20038;-77
2021/06/04 05:39:19;;;;;;;15.10;5.80;;;;;;;;;;4993212;28;20479;-77
2021/06/04 05:41:47;;;;;;;12.70;4.80;;;;;;;;;;4983328;28;20041;-77
2021/06/04 05:44:14;;;;;;;9.75;4.63;;;;;;;;;;5009007;28;20479;-77
2021/06/04 05:46:44;;;;;;;9.43;4.32;;;;;;;;;;4994005;28;20022;-75
2021/06/04 05:49:10;;;;;;;7.07;4.22;;;;;;;;;;4965946;28;20023;-85
2021/06/04 05:51:36;;;;;;;6.78;3.92;;;;;;;;;;4989550;28;20058;-78
2021/06/04 05:54:03;;;;;;;13.63;6.57;;;;;;;;;;4991349;28;21659;-81
2021/06/04 05:56:29;;;;;;;9.73;4.30;;;;;;;;;;4989847;28;20031;-84
2021/06/04 05:58:55;;;;;;;18.50;4.10;;;;;;;;;;4972750;28;20034;-87
2021/06/04 06:01:24;;;;;;;8.13;4.15;;;;;;;;;;4988296;28;20141;-91
2021/06/04 06:03:50;;;;;;;15.43;5.05;;;;;;;;;;4999553;28;20153;-80
2021/06/04 06:06:17;;;;;;;9.68;3.65;;;;;;;;;;4985841;28;20403;-80
2021/06/04 06:08:43;;;;;;;7.25;3.65;;;;;;;;;;4997019;28;20022;-78
2021/06/04 06:11:11;;;;;;;12.13;4.57;;;;;;;;;;4998948;28;20027;-82
2021/06/04 06:13:37;;;;;;;11.18;3.90;;;;;;;;;;4990374;28;20037;-80
2021/06/04 06:16:04;;;;;;;10.40;3.90;;;;;;;;;;4991703;28;20034;-79
2021/06/04 06:18:30;;;;;;;14.60;4.05;;;;;;;;;;4993786;28;20395;-82
2021/06/04 06:20:56;;;;;;;10.48;4.20;;;;;;;;;;4995974;28;20034;-81
2021/06/04 06:23:25;;;;;;;9.35;3.88;;;;;;;;;;4992984;28;20029;-84
2021/06/04 06:25:55;;;;;;;9.85;4.05;;;;;;;;;;4992883;28;20023;-76
2021/06/04 06:28:22;;;;;;;7.88;3.85;;;;;;;;;;4971434;28;20507;-77
2021/06/04 06:30:48;;;;;;;8.50;3.97;;;;;;;;;;4997067;28;20058;-79
2021/06/04 06:33:14;;;;;;;7.90;3.72;;;;;;;;;;5000010;28;20074;-81
2021/06/04 06:35:44;;;;;;;11.85;4.00;;;;;;;;;;4993749;28;20079;-79
2021/06/04 06:38:11;;;;;;;10.30;3.53;;;;;;;;;;4992079;28;20038;-74
2021/06/04 06:40:40;;;;;;;10.45;3.88;;;;;;;;;;4997252;28;20475;-75
2021/06/04 06:43:06;;;;;;;9.07;3.80;;;;;;;;;;4998351;28;20030;-74
2021/06/04 06:45:32;;;;;;;9.88;4.15;;;;;;;;;;4991469;28;20584;-75
2021/06/04 06:47:58;;;;;;;13.02;3.65;;;;;;;;;;4992300;28;20090;-75
2021/06/04 06:50:28;;;;;;;8.90;3.90;;;;;;;;;;4982451;28;20053;-73
2021/06/04 06:52:54;;;;;;;12.60;4.00;;;;;;;;;;4988765;28;20027;-74
2021/06/04 06:55:21;;;;;;;9.93;4.03;;;;;;;;;;4963243;28;20373;-79
2021/06/04 06:57:47;;;;;;;9.02;4.25;;;;;;;;;;4986129;28;20038;-78
2021/06/04 07:00:18;;;;;;;8.05;3.55;;;;;;;;;;4992855;28;20029;-79
2021/06/04 07:02:45;;;;;;;9.77;3.95;;;;;;;;;;4975917;28;21806;-79
2021/06/04 07:05:11;;;;;;;10.02;4.20;;;;;;;;;;4985669;28;20035;-78
2021/06/04 07:07:39;;;;;;;7.68;3.90;;;;;;;;;;4973936;28;20047;-73
2021/06/04 07:10:06;;;;;;;14.30;4.47;;;;;;;;;;4987189;28;20046;-74
2021/06/04 07:12:32;;;;;;;12.50;4.90;;;;;;;;;;4994397;28;20476;-72
2021/06/04 07:14:59;;;;;;;11.88;4.05;;;;;;;;;;4987140;28;20038;-73
2021/06/04 07:17:27;;;;;;;7.40;4.22;;;;;;;;;;4991526;28;20065;-80
2021/06/04 07:19:53;;;;;;;9.18;4.05;;;;;;;;;;4993491;28;20022;-76
2021/06/04 07:22:19;;;;;;;8.45;4.10;;;;;;;;;;4992416;28;20052;-82
2021/06/04 07:24:45;;;;;;;10.88;4.70;;;;;;;;;;4991206;28;20074;-76
2021/06/04 07:27:11;;;;;;;9.52;4.20;;;;;;;;;;4993117;28;21782;-76
2021/06/04 07:29:37;;;;;;;11.23;4.15;;;;;;;;;;4987880;28;20081;-74
2021/06/04 07:32:04;;;;;;;8.27;4.22;;;;;;;;;;4985543;28;20034;-77
2021/06/04 07:34:30;;;;;;;9.70;4.20;;;;;;;;;;4990903;28;20019;-77
2021/06/04 07:36:58;;;;;;;10.52;4.25;;;;;;;;;;4992328;28;20026;-85
2021/06/04 07:39:25;;;;;;;8.73;4.10;;;;;;;;;;4984521;28;20038;-71
2021/06/04 07:41:52;;;;;;;9.20;4.63;;;;;;;;;;4989487;28;20093;-73
2021/06/04 07:44:20;;;;;;;9.55;4.10;;;;;;;;;;4992924;28;20024;-72
2021/06/04 07:46:46;;;;;;;9.07;4.95;;;;;;;;;;4992693;28;20039;-73
2021/06/04 07:49:13;;;;;;;9.18;4.40;;;;;;;;;;4989070;28;20030;-72
2021/06/04 07:51:41;;;;;;;8.27;4.25;;;;;;;;;;4992169;28;20074;-79
2021/06/04 07:54:11;;;;;;;11.77;4.28;;;;;;;;;;4989965;28;20436;-80
2021/06/04 07:56:37;;;;;;;11.50;4.07;;;;;;;;;;4990425;28;20034;-77
2021/06/04 07:59:04;;;;;;;11.23;4.57;;;;;;;;;;4991830;28;20089;-78
2021/06/04 08:01:30;;;;;;;10.38;4.10;;;;;;;;;;4973071;28;20026;-80
2021/06/04 08:03:57;;;;;;;17.05;4.57;;;;;;;;;;4987117;28;20058;-74
2021/06/04 08:06:23;;;;;;;14.35;5.35;;;;;;;;;;4991657;28;20038;-94
2021/06/04 08:08:53;;;;;;;9.60;4.15;;;;;;;;;;4965866;28;20031;-83
2021/06/04 08:11:21;;;;;;;8.18;4.20;;;;;;;;;;4990753;28;20042;-87
2021/06/04 08:13:47;;;;;;;14.55;3.92;;;;;;;;;;4985691;28;20034;-83
2021/06/04 08:16:14;;;;;;;12.30;3.85;;;;;;;;;;4991343;28;20089;-80
2021/06/04 08:18:40;;;;;;;9.85;4.10;;;;;;;;;;4991318;28;20042;-74
2021/06/04 08:21:09;;;;;;;10.88;4.10;;;;;;;;;;4970376;28;20027;-73
2021/06/04 08:23:37;;;;;;;9.63;3.97;;;;;;;;;;4987089;28;20105;-72
2021/06/04 08:26:04;;;;;;;7.28;3.97;;;;;;;;;;4985267;28;20105;-73
2021/06/04 08:28:31;;;;;;;5.72;3.42;;;;;;;;;;4992514;28;20066;-73
2021/06/04 08:30:58;;;;;;;9.00;3.72;;;;;;;;;;4990508;28;20045;-73
2021/06/04 08:33:28;;;;;;;11.40;3.20;;;;;;;;;;4992371;28;20038;-73
2021/06/04 08:35:55;;;;;;;9.15;3.80;;;;;;;;;;4990936;28;20037;-73
2021/06/04 08:38:21;;;;;;;6.57;3.28;;;;;;;;;;4987127;28;20117;-72
2021/06/04 08:40:47;;;;;;;12.05;3.45;;;;;;;;;;4984155;28;20109;-73
2021/06/04 08:43:16;;;;;;;9.32;3.53;;;;;;;;;;4992998;28;20101;-73
2021/06/04 08:46:01;;;;;;;6.63;3.10;;;;;;;;;;4985443;28;20018;-73
2021/06/04 08:48:48;;;;;;;8.50;3.45;;;;;;;;;;4992047;28;20031;-73
2021/06/04 08:51:17;;;;;;;14.15;4.15;;;;;;;;;;4989936;28;20125;-72
2021/06/04 08:53:49;;;;;;;8.75;3.08;;;;;;;;;;4969852;28;20065;-72
2021/06/04 08:56:17;;;;;;;12.40;3.25;;;;;;;;;;4989697;28;20054;-73
2021/06/04 08:58:59;;;;;;;7.00;3.30;;;;;;;;;;4992441;28;20038;-73
2021/06/04 09:01:36;;;;;;;4.63;2.78;;;;;;;;;;4992470;28;20022;-72
2021/06/04 09:04:17;;;;;;;7.80;2.95;;;;;;;;;;4986980;28;20814;-72
2021/06/04 09:06:48;;;;;;;6.30;3.00;;;;;;;;;;4987412;28;20026;-73
2021/06/04 09:09:21;;;;;;;4.28;2.60;;;;;;;;;;4998037;28;20054;-73
2021/06/04 09:11:47;;;;;;;;;;;;;;;;;;4988533;28;20033;-72
2021/06/04 09:14:13;;;;;;;6.72;4.13;;;;;;;;;;4993061;28;19909;-73
2021/06/04 09:16:45;;;;;;;9.82;3.20;;;;;;;;;;4982517;28;20496;-73
2021/06/04 09:19:14;;;;;;;8.52;3.10;;;;;;;;;;4983998;28;20559;-73
2021/06/04 09:21:41;;;;;;;6.57;2.70;;;;;;;;;;4965653;28;20496;-72
2021/06/04 09:24:09;;;;;;;5.80;2.63;;;;;;;;;;4984202;28;20050;-72
2021/06/04 09:26:37;;;;;;;11.23;2.88;;;;;;;;;;4979003;28;20027;-73
2021/06/04 09:29:04;;;;;;;9.75;3.10;;;;;;;;;;4963268;28;20048;-72
2021/06/04 09:31:43;;;;;;;5.30;2.50;;;;;;;;;;4979570;28;20022;-72
2021/06/04 09:34:15;;;;;;;6.88;2.80;;;;;;;;;;4984638;28;20030;-72
2021/06/04 09:36:43;;;;;;;5.20;2.67;;;;;;;;;;4991086;28;20030;-73
2021/06/04 09:39:09;;;;;;;6.15;2.65;;;;;;;;;;4990710;28;20038;-73
2021/06/04 09:41:40;;;;;;;5.43;2.88;;;;;;;;;;4995868;28;20168;-73
2021/06/04 09:44:22;;;;;;;8.32;2.90;;;;;;;;;;4993410;28;20109;-73
2021/06/04 09:47:16;;;;;;;4.53;2.55;;;;;;;;;;4991755;28;20483;-73
2021/06/04 09:49:45;;;;;;;9.00;2.78;;;;;;;;;;4998367;28;20041;-73
2021/06/04 09:52:16;;;;;;;6.97;2.47;;;;;;;;;;4982768;28;20035;-73
2021/06/04 09:54:42;;;;;;;6.22;2.75;;;;;;;;;;4983672;28;20114;-73
2021/06/04 09:57:10;;;;;;;22.08;3.47;;;;;;;;;;4989254;28;20117;-72
2021/06/04 09:59:37;;;;;;;9.90;2.78;;;;;;;;;;4994473;28;20029;-73
2021/06/04 10:02:22;;;;;;;4.07;2.25;;;;;;;;;;4990376;28;20122;-72
2021/06/04 10:04:49;;;;;;;7.30;3.00;;;;;;;;;;4992996;28;20022;-72
2021/06/04 10:07:20;;;;;;;6.53;4.68;;;;;;;;;;4995324;28;20088;-72
2021/06/04 10:09:46;;;;;;;8.73;2.75;;;;;;;;;;4988313;28;20030;-73
2021/06/04 10:12:33;;;;;;;4.15;2.40;;;;;;;;;;4989964;28;20499;-73
2021/06/04 10:15:11;;;;;;;8.50;2.63;;;;;;;;;;4984404;28;20038;-72
2021/06/04 10:18:04;;;;;;;14.65;5.05;;;;;;;;;;4988885;28;20022;-75
2021/06/04 10:20:34;;;;;;;4.95;2.72;;;;;;;;;;4985487;28;20123;-76
2021/06/04 10:23:29;;;;;;;6.40;2.67;;;;;;;;;;4990916;28;20033;-76
2021/06/04 10:26:00;;;;;;;4.78;2.90;;;;;;;;;;4973612;28;20038;-76
2021/06/04 10:28:26;;;;;;;39.78;6.30;;;;;;;;;;4990868;28;20494;-76
2021/06/04 10:30:53;;;;;;;8.82;3.15;;;;;;;;;;4992281;28;20030;-73
2021/06/04 10:33:27;;;;;;;4.07;2.60;;;;;;;;;;4987215;28;20037;-82
2021/06/04 10:35:59;;;;;;;5.60;2.53;;;;;;;;;;4994747;28;20044;-84
2021/06/04 10:38:44;;;;;;;4.60;2.60;;;;;;;;;;4970840;28;20563;-73
2021/06/04 10:41:19;;;;;;;4.20;2.63;;;;;;;;;;4986879;28;20622;-73
2021/06/04 10:43:58;;;;;;;8.27;2.70;;;;;;;;;;4991909;28;20113;-73
2021/06/04 10:46:29;;;;;;;5.15;2.35;;;;;;;;;;4991793;28;20026;-73
2021/06/04 10:49:15;;;;;;;8.82;2.70;;;;;;;;;;4992134;28;20030;-77
2021/06/04 10:51:56;;;;;;;6.07;2.60;;;;;;;;;;4992048;28;20054;-73
2021/06/04 10:54:40;;;;;;;3.10;2.45;;;;;;;;;;4986220;28;20036;-73
2021/06/04 10:57:25;;;;;;;8.50;2.63;;;;;;;;;;4987415;28;20066;-73
2021/06/04 10:59:57;;;;;;;7.53;2.92;;;;;;;;;;4988734;28;20030;-73
2021/06/04 11:02:29;;;;;;;4.30;2.28;;;;;;;;;;4991506;28;20034;-73
2021/06/04 11:05:14;;;;;;;4.65;2.67;;;;;;;;;;4985813;28;20392;-73
2021/06/04 11:07:58;;;;;;;4.32;2.60;;;;;;;;;;4993244;28;20069;-74
2021/06/04 11:10:27;;;;;;;14.73;3.47;;;;;;;;;;4987051;28;20102;-73
2021/06/04 11:12:56;;;;;;;3.25;2.60;;;;;;;;;;4987959;28;20036;-73
2021/06/04 11:15:45;;;;;;;6.55;2.35;;;;;;;;;;4987812;28;20029;-74
2021/06/04 11:18:14;;;;;;;3.42;2.45;;;;;;;;;;4992436;28;20496;-73
2021/06/04 11:20:43;;;;;;;6.30;2.83;;;;;;;;;;4991357;28;20026;-73
2021/06/04 11:23:09;;;;;;;8.68;2.95;;;;;;;;;;4991606;28;20033;-74
2021/06/04 11:25:35;;;;;;;3.83;2.42;;;;;;;;;;4985940;28;20495;-72
2021/06/04 11:28:12;;;;;;;13.05;3.25;;;;;;;;;;4990573;28;20027;-81
2021/06/04 11:30:39;;;;;;;6.35;2.55;;;;;;;;;;4974783;28;20026;-80
2021/06/04 11:33:08;;;;;;;5.65;2.90;;;;;;;;;;4995365;28;20031;-75
2021/06/04 11:35:42;;;;;;;7.93;2.85;;;;;;;;;;4989308;28;20058;-77
2021/06/04 11:38:27;;;;;;;4.95;2.50;;;;;;;;;;4972038;28;20133;-75
2021/06/04 11:40:56;;;;;;;5.38;2.97;;;;;;;;;;4986422;28;20495;-76
2021/06/04 11:43:28;;;;;;;4.25;2.60;;;;;;;;;;4991580;28;20035;-73
2021/06/04 11:46:13;;;;;;;7.67;2.83;;;;;;;;;;4986728;28;20038;-75
2021/06/04 11:48:41;;;;;;;5.90;2.35;;;;;;;;;;4991377;28;20910;-77
2021/06/04 11:51:19;;;;;;;5.95;2.75;;;;;;;;;;4995460;28;20049;-78
2021/06/04 11:53:54;;;;;;;7.25;2.83;;;;;;;;;;4957708;28;20504;-76
2021/06/04 11:56:38;;;;;;;13.63;2.70;;;;;;;;;;4990412;28;20467;-74
2021/06/04 11:59:24;;;;;;;5.38;2.70;;;;;;;;;;4993041;28;20038;-80
2021/06/04 12:02:09;;;;;;;6.25;2.60;;;;;;;;;;4974053;28;20030;-76
2021/06/04 12:04:35;;;;;;;8.00;2.80;;;;;;;;;;4985520;28;20033;-74
2021/06/04 12:07:24;;;;;;;3.97;2.67;;;;;;;;;;4990841;28;20045;-81
2021/06/04 12:09:51;;;;;;;7.18;2.80;;;;;;;;;;4966285;28;20065;-75
2021/06/04 12:12:19;;;;;;;5.03;2.72;;;;;;;;;;4988937;28;20037;-74
2021/06/04 12:15:08;;;;;;;5.18;2.70;;;;;;;;;;4991726;28;20069;-81
2021/06/04 12:17:34;;;;;;;5.43;2.90;;;;;;;;;;4927048;29;20123;-77
2021/06/04 12:20:15;;;;;;;6.40;2.80;;;;;;;;;;4917293;29;20050;-76
2021/06/04 12:22:48;;;;;;;3.97;2.60;;;;;;;;;;4904370;29;20597;-75
2021/06/04 12:25:34;;;;;;;5.50;2.78;;;;;;;;;;4920233;29;20091;-78
2021/06/04 12:28:03;;;;;;;7.53;2.90;;;;;;;;;;4918712;29;20051;-76
2021/06/04 12:30:52;;;;;;;4.82;2.83;;;;;;;;;;4920843;29;20040;-70
2021/06/04 12:33:33;;;;;;;5.28;2.80;;;;;;;;;;4870766;29;20132;-71
2021/06/04 12:35:59;;;;;;;6.65;2.92;;;;;;;;;;4872113;29;20045;-72
2021/06/04 12:38:32;;;;;;;5.78;2.80;;;;;;;;;;4865246;29;20143;-70
2021/06/04 12:41:00;;;;;;;5.22;2.80;;;;;;;;;;4868866;29;20037;-72
2021/06/04 12:43:27;;;;;;;3.30;2.50;;;;;;;;;;4870311;29;20761;-72
2021/06/04 12:45:56;;;;;;;4.35;2.80;;;;;;;;;;4870888;29;20034;-73
2021/06/04 12:48:49;;;;;;;8.27;3.00;;;;;;;;;;4873755;29;20097;-73
2021/06/04 12:51:16;;;;;;;6.57;2.60;;;;;;;;;;4816689;29;21399;-72
2021/06/04 12:53:44;;;;;;;6.72;2.67;;;;;;;;;;4823601;29;20109;-70
2021/06/04 12:56:19;;;;;;;9.93;3.45;;;;;;;;;;4859105;29;20110;-70
2021/06/04 12:58:46;;;;;;;5.22;2.83;;;;;;;;;;4867200;29;20044;-72
2021/06/04 13:01:12;;;;;;;35.30;4.53;;;;;;;;;;4866669;29;20022;-72
2021/06/04 13:03:41;;;;;;;8.68;2.92;;;;;;;;;;4858139;29;20046;-72
2021/06/04 13:06:12;;;;;;;12.82;2.90;;;;;;;;;;4856508;29;20044;-73
2021/06/04 13:08:45;;;;;;;7.40;2.90;;;;;;;;;;4860588;29;20060;-73
2021/06/04 13:11:11;;;;;;;;;;;;;;;;;;4900660;29;20040;-73
2021/06/04 13:13:39;;;;;;;14.15;3.10;;;;;;;;;;4901179;29;19907;-73
2021/06/04 13:16:23;;;;;;;8.65;2.97;;;;;;;;;;4907636;29;20081;-73
2021/06/04 13:18:50;;;;;;;6.50;2.60;;;;;;;;;;4915124;29;20615;-73
2021/06/04 13:21:16;;;;;;;5.60;2.50;;;;;;;;;;4906757;29;20040;-71
2021/06/04 13:23:42;;;;;;;8.98;2.65;;;;;;;;;;4914111;29;20032;-70
2021/06/04 13:26:11;;;;;;;9.23;2.75;;;;;;;;;;4915213;29;20040;-73
2021/06/04 13:28:39;;;;;;;7.45;2.70;;;;;;;;;;4972693;28;20595;-71
2021/06/04 13:31:06;;;;;;;14.43;3.08;;;;;;;;;;4994631;28;20097;-71
2021/06/04 13:33:36;;;;;;;7.28;2.80;;;;;;;;;;4990514;28;20098;-73
2021/06/04 13:38:55;;;;;;;5.72;2.85;;;;;;;;;;4976339;22;20053;-69
2021/06/04 13:41:33;;;;;;;6.70;2.88;;;;;;;;;;5016345;28;20033;-74
2021/06/04 13:44:01;;;;;;;5.47;2.83;;;;;;;;;;5031959;28;20429;-72
2021/06/04 13:46:35;;;;;;;7.82;2.60;;;;;;;;;;5034798;28;20028;-70
2021/06/04 13:49:13;;;;;;;12.20;3.10;;;;;;;;;;5022819;28;20025;-73
2021/06/04 13:51:57;;;;;;;9.48;2.90;;;;;;;;;;5040396;28;20039;-73
2021/06/04 13:54:29;;;;;;;3.53;2.22;;;;;;;;;;5024912;28;20026;-71
2021/06/04 13:56:55;;;;;;;13.98;3.10;;;;;;;;;;5024865;28;20065;-70
2021/06/04 13:59:26;;;;;;;11.43;3.10;;;;;;;;;;5033559;28;20037;-72
2021/06/04 14:01:55;;;;;;;4.70;2.80;;;;;;;;;;5033083;28;20471;-70
2021/06/04 14:04:39;;;;;;;4.93;2.63;;;;;;;;;;5029493;28;20817;-72
2021/06/04 14:07:08;;;;;;;5.57;2.72;;;;;;;;;;5033163;28;20080;-73
2021/06/04 14:09:36;;;;;;;5.95;2.65;;;;;;;;;;5032020;28;20032;-73
2021/06/04 14:12:22;;;;;;;13.23;3.28;;;;;;;;;;5030970;28;20440;-73
2021/06/04 14:14:52;;;;;;;11.93;3.35;;;;;;;;;;5010805;28;20132;-72
2021/06/04 14:17:18;;;;;;;11.52;2.78;;;;;;;;;;5032906;28;20030;-72
2021/06/04 14:19:54;;;;;;;4.78;2.65;;;;;;;;;;5031677;28;20072;-72
2021/06/04 14:22:32;;;;;;;4.20;2.72;;;;;;;;;;5027130;28;20053;-71
2021/06/04 14:24:58;;;;;;;7.65;2.85;;;;;;;;;;5023972;28;20121;-72
2021/06/04 14:27:31;;;;;;;15.02;4.25;;;;;;;;;;5030518;28;20212;-73
2021/06/04 14:30:01;;;;;;;5.78;2.80;;;;;;;;;;5037920;28;20026;-72
2021/06/04 14:32:32;;;;;;;6.38;2.80;;;;;;;;;;5032924;28;20025;-73
2021/06/04 14:35:07;;;;;;;5.80;2.60;;;;;;;;;;5024293;28;20064;-73
2021/06/04 14:37:52;;;;;;;3.00;2.58;;;;;;;;;;5014709;28;20030;-72
2021/06/04 14:40:33;;;;;;;7.40;2.60;;;;;;;;;;5014438;28;20045;-73
2021/06/04 14:43:01;;;;;;;4.43;2.90;;;;;;;;;;5008813;28;20029;-73
2021/06/04 14:45:27;;;;;;;10.27;3.05;;;;;;;;;;5011084;28;20041;-73